Terminal Aerodrome Forecast
Issued by NWS Tuscon, AZ

Home | Current Version | Previous Version | Text Only | Print | Product List | Glossary On
Versions: 1 2 3 4 5 6 7 8 9 10 11 12 13 14 15 16 17 18 19 20 21 22 23
000
FTUS45 KTWC 022339
TAFTUS
TAF
KTUS 022339Z 0300/0324 12012KT P6SM VCTS SCT090CB BKN140
      TEMPO 0300/0302 VRB15G30KT -TSRA BKN080CB OVC130
     FM030200 19007KT P6SM FEW090 SCT140 BKN250
     FM030700 14007KT P6SM FEW140 SCT250
     FM031800 18008KT P6SM SCT090 SCT140
     FM032200 20009KT P6SM VCTS SCT090CB BKN140=

USA.gov is the U.S. government's official web portal to all federal, state and local government web resources and services.